To NAV CANADA Home Page Login to a new session Search on AWWS site Feedback and Comments Disclaimer Vers la page française équivalente Tips FAQ What's new on the site To the Forecasts and Observations / NOTAM section To "File a Flight Plan" website Publications and other links Update of the User's profile FIC Telephone Numbers My Weather Data Folder Route Weather Data Regional Weather Data Local Weather Data To the Forecasts and Observations / NOTAM section
Request Generated 03/28/2015 at 09:17:51 UTC . Weather information available at that time is displayed.

METAR/TAF

THOMPSON/MB    

METAR CYTH 280900Z 19007KT 15SM FEW160 M05/M09 A2980 RMK AC2 SLP108=
METAR CYTH 280800Z 20007KT 15SM BKN160 M04/M09 A2985 RMK AC6 SLP122=
METAR CYTH 280700Z 21007KT 15SM SCT160 M03/M09 A2987 RMK AS4 SLP130=

TAF CYTH 280638Z 2807/2819 21008KT P6SM SCT160
FM281400 21008KT 5SM -SN OVC025 TEMPO 2814/2817 11/2SM -SN VV010
FM281700 21008KT 3/4SM -SN VV008 TEMPO 2817/2819 2SM -SN OVC015
RMK NXT FCST BY 281300Z=
Your time UTC time
Weather data provided by Environment Canada and NAV CANADA